TimeSAST,TemperatureF,Dew PointF,Humidity,Sea Level PressureIn,VisibilityMPH,Wind Direction,Wind SpeedMPH,Gust SpeedMPH,PrecipitationIn,Events,Conditions,WindDirDegrees,DateUTC
12:00 AM,75.2,35.6,24,29.92,-9999.0,South,1.2,-,N/A,,Unknown,180,2013-03-23 22:00:00
1:00 AM,69.8,35.6,28,29.92,-9999.0,SSW,3.5,-,N/A,,Clear,210,2013-03-23 23:00:00
2:00 AM,74,34,13,,25,SW,4.6,,,,Mostly Cloudy,220,2013-03-24 00:00:00
2:00 AM,73.4,33.8,23,29.92,-9999.0,SW,3.5,-,N/A,,Clear,220,2013-03-24 00:00:00
3:00 AM,69.8,32.0,25,29.92,-9999.0,SW,5.8,-,N/A,,Clear,220,2013-03-24 01:00:00
4:00 AM,69.8,32.0,25,29.89,-9999.0,SW,3.5,-,N/A,,Clear,230,2013-03-24 02:00:00
5:00 AM,70,35,17,,25,SSW,3.5,,,,Partly Cloudy,210,2013-03-24 03:00:00
5:00 AM,69.8,33.8,27,29.89,-9999.0,SSW,3.5,-,N/A,,Clear,210,2013-03-24 03:00:00
6:00 AM,68.0,35.6,30,29.95,-9999.0,West,5.8,-,N/A,,Clear,280,2013-03-24 04:00:00
8:00 AM,73,37,17,,9,South,4.6,,,,Mostly Cloudy,190,2013-03-24 06:00:00
9:00 AM,75.2,39.2,27,29.98,6.2,SSW,2.3,-,N/A,Rain,Rain,200,2013-03-24 07:00:00
10:00 AM,78.8,37.4,23,29.98,6.2,West,2.3,-,N/A,Rain,Rain,270,2013-03-24 08:00:00
11:00 AM,83,40,13,,12,South,2.3,,,,Mostly Cloudy,190,2013-03-24 09:00:00
2:00 PM,94,38,7,,16,WNW,3.5,,,,Scattered Clouds,300,2013-03-24 12:00:00
2:00 PM,93.2,37.4,14,29.92,6.2,WNW,3.5,-,N/A,Rain,Rain,300,2013-03-24 12:00:00
3:00 PM,89.6,33.8,14,29.92,6.2,NNW,9.2,-,N/A,,Mostly Cloudy,330,2013-03-24 13:00:00
4:00 PM,89.6,33.8,14,29.89,6.2,West,11.5,-,N/A,,Mostly Cloudy,270,2013-03-24 14:00:00
5:00 PM,91,36,7,,12,NW,6.9,,,,Scattered Clouds,320,2013-03-24 15:00:00
6:00 PM,89.6,37.4,16,29.89,6.2,West,4.6,-,N/A,Rain,Rain,280,2013-03-24 16:00:00
8:00 PM,87,36,8,,25,SE,3.5,,,,Scattered Clouds,130,2013-03-24 18:00:00
8:00 PM,86.0,35.6,17,29.89,6.2,SE,3.5,-,N/A,,Mostly Cloudy,130,2013-03-24 18:00:00
9:00 PM,80.6,37.4,21,29.92,-9999.0,Calm,Calm,-,N/A,,Unknown,0,2013-03-24 19:00:00
10:00 PM,77.0,37.4,24,29.95,-9999.0,WSW,3.5,-,N/A,,Unknown,250,2013-03-24 20:00:00
11:00 PM,79,41,16,,,North,8.1,,,,,350,2013-03-24 21:00:00
11:00 PM,77.0,41.0,28,29.98,-9999.0,North,6.9,-,N/A,,Unknown,350,2013-03-24 21:00:00